createdAt,value
2018-12-23T00:01:06.978Z,18.83
2018-12-23T00:03:35.972Z,13.60
2018-12-23T00:06:05.265Z,17.87
2018-12-23T00:08:34.799Z,14.63
2018-12-23T00:11:04.790Z,14.97
2018-12-23T00:13:34.080Z,14.00
2018-12-23T00:16:03.908Z,12.60
2018-12-23T00:18:32.955Z,10.10
2018-12-23T00:21:03.128Z,12.80
2018-12-23T00:23:32.572Z,14.33
2018-12-23T00:26:02.398Z,14.40
2018-12-23T00:28:31.368Z,16.33
2018-12-23T00:31:01.231Z,13.73
2018-12-23T00:33:30.335Z,13.73
2018-12-23T00:35:59.384Z,14.33
2018-12-23T00:38:28.344Z,13.70
2018-12-23T00:40:57.591Z,16.17
2018-12-23T00:43:26.736Z,16.00
2018-12-23T00:45:56.119Z,15.83
2018-12-23T00:48:25.265Z,12.57
2018-12-23T00:50:54.331Z,12.60
2018-12-23T00:53:23.453Z,13.63
2018-12-23T00:55:52.607Z,9.17
2018-12-23T00:58:21.529Z,12.23
2018-12-23T01:00:51.192Z,13.77
2018-12-23T01:03:20.077Z,14.00
2018-12-23T01:05:48.883Z,12.00
2018-12-23T01:08:17.699Z,9.93
2018-12-23T01:10:46.468Z,10.37
2018-12-23T01:13:15.295Z,10.60
2018-12-23T01:15:44.074Z,13.63
2018-12-23T01:18:12.944Z,8.30
2018-12-23T01:20:42.919Z,15.20
2018-12-23T01:23:11.723Z,13.73
2018-12-23T01:25:40.548Z,13.83
2018-12-23T01:28:09.353Z,8.93
2018-12-23T01:30:38.134Z,13.43
2018-12-23T01:33:06.913Z,10.77
2018-12-23T01:35:37.308Z,14.27
2018-12-23T01:38:06.511Z,13.63
2018-12-23T01:40:35.296Z,10.00
2018-12-23T01:43:04.096Z,12.63
2018-12-23T01:45:32.899Z,12.17
2018-12-23T01:48:01.925Z,12.63
2018-12-23T01:50:30.802Z,15.00
2018-12-23T01:52:59.609Z,10.13
2018-12-23T01:55:29.057Z,10.00
2018-12-23T01:57:57.840Z,13.63
2018-12-23T02:00:26.712Z,12.07
2018-12-23T02:02:55.525Z,8.93
2018-12-23T02:05:24.374Z,7.87
2018-12-23T02:07:53.208Z,6.67
2018-12-23T02:10:22.060Z,11.87
2018-12-23T02:12:50.924Z,11.13
2018-12-23T02:15:19.724Z,9.73
2018-12-23T02:17:48.739Z,15.23
2018-12-23T02:20:17.547Z,8.70
2018-12-23T02:22:46.329Z,12.20
2018-12-23T02:25:15.202Z,6.40
2018-12-23T02:27:44.420Z,10.73
2018-12-23T02:30:13.888Z,9.10
2018-12-23T02:32:42.686Z,10.50
2018-12-23T02:35:11.488Z,11.87
2018-12-23T02:37:40.316Z,13.67
2018-12-23T02:40:09.152Z,19.63
2018-12-23T02:42:37.984Z,14.00
2018-12-23T02:45:06.886Z,17.17
2018-12-23T02:47:35.663Z,21.57
2018-12-23T02:50:04.742Z,14.43
2018-12-23T02:52:33.615Z,17.20
2018-12-23T02:55:02.396Z,21.83
2018-12-23T02:57:31.214Z,20.37
2018-12-23T02:59:59.997Z,20.67
2018-12-23T03:02:28.784Z,18.73
2018-12-23T03:04:57.582Z,17.10
2018-12-23T03:07:26.408Z,14.97
2018-12-23T03:09:55.212Z,21.70
2018-12-23T03:12:24.247Z,10.47
2018-12-23T03:14:53.037Z,10.40
2018-12-23T03:17:21.824Z,18.07
2018-12-23T03:19:50.609Z,13.90
2018-12-23T03:22:19.558Z,12.30
2018-12-23T03:24:48.701Z,10.17
2018-12-23T03:27:17.847Z,15.13
2018-12-23T03:29:46.844Z,13.47
2018-12-23T03:32:15.639Z,16.20
2018-12-23T03:34:44.682Z,19.63
2018-12-23T03:37:13.507Z,12.17
2018-12-23T03:39:44.472Z,16.33
2018-12-23T03:42:14.110Z,11.33
2018-12-23T03:44:42.919Z,13.70
2018-12-23T03:47:12.916Z,11.97
2018-12-23T03:49:41.951Z,12.30
2018-12-23T03:52:10.736Z,9.07
2018-12-23T03:54:39.647Z,8.23
2018-12-23T03:57:08.452Z,10.60
2018-12-23T03:59:37.268Z,13.30
2018-12-23T04:02:06.066Z,8.37
2018-12-23T04:04:34.945Z,10.57
2018-12-23T04:07:03.945Z,14.53
2018-12-23T04:09:32.789Z,11.93
2018-12-23T04:12:01.774Z,8.47
2018-12-23T04:14:30.832Z,14.60
2018-12-23T04:17:00.012Z,12.13
2018-12-23T04:19:29.312Z,12.37
2018-12-23T04:21:58.366Z,15.13
2018-12-23T04:24:27.198Z,11.77
2018-12-23T04:26:56.294Z,13.13
2018-12-23T04:29:25.328Z,11.33
2018-12-23T04:31:54.124Z,17.50
2018-12-23T04:34:23.270Z,10.70
2018-12-23T04:36:52.240Z,17.70
2018-12-23T04:39:21.046Z,12.40
2018-12-23T04:41:49.946Z,12.47
2018-12-23T04:44:18.905Z,13.97
2018-12-23T04:46:47.760Z,20.70
2018-12-23T04:49:16.575Z,16.77
2018-12-23T04:51:45.426Z,13.20
2018-12-23T04:54:14.403Z,11.63
2018-12-23T04:56:43.203Z,18.20
2018-12-23T04:59:11.971Z,14.70
2018-12-23T05:01:40.767Z,26.87
2018-12-23T05:04:09.544Z,15.80
2018-12-23T05:06:43.303Z,12.47
2018-12-23T05:09:09.899Z,13.07
2018-12-23T05:11:39.674Z,14.60
2018-12-23T05:14:08.700Z,14.98
2018-12-23T05:16:37.492Z,9.77
2018-12-23T05:19:06.382Z,12.60
2018-12-23T05:21:35.254Z,15.10
2018-12-23T05:24:04.356Z,13.27
2018-12-23T05:26:33.803Z,18.37
2018-12-23T05:29:03.571Z,11.50
2018-12-23T05:31:34.422Z,21.60
2018-12-23T05:34:05.801Z,15.47
2018-12-23T05:36:36.974Z,19.80
2018-12-23T05:39:08.348Z,23.20
2018-12-23T05:41:39.629Z,18.43
2018-12-23T05:44:10.283Z,22.40
2018-12-23T05:46:39.356Z,18.87
2018-12-23T05:49:10.501Z,23.30
2018-12-23T05:51:39.524Z,26.00
2018-12-23T05:54:08.614Z,22.53
2018-12-23T05:56:37.541Z,20.10
2018-12-23T05:59:06.488Z,23.23
2018-12-23T06:01:35.845Z,19.77
2018-12-23T06:04:04.840Z,19.50
2018-12-23T06:06:34.444Z,21.07
2018-12-23T06:09:05.896Z,30.73
2018-12-23T06:11:34.984Z,21.33
2018-12-23T06:14:04.091Z,29.27
2018-12-23T06:16:32.871Z,25.33
2018-12-23T06:19:01.925Z,34.93
2018-12-23T06:21:31.016Z,30.13
2018-12-23T06:23:59.972Z,28.93
2018-12-23T06:26:28.752Z,37.63
2018-12-23T06:28:57.910Z,31.67
2018-12-23T06:31:26.822Z,30.43
2018-12-23T06:33:55.759Z,32.90
2018-12-23T06:36:24.562Z,28.83
2018-12-23T06:38:53.352Z,27.70
2018-12-23T06:41:22.579Z,31.17
2018-12-23T06:43:51.362Z,30.87
2018-12-23T06:46:20.481Z,43.80
2018-12-23T06:48:49.582Z,33.03
2018-12-23T06:51:18.364Z,31.80
2018-12-23T06:53:47.462Z,40.47
2018-12-23T06:56:16.399Z,34.00
2018-12-23T06:58:45.476Z,34.00
2018-12-23T07:01:15.216Z,35.67
2018-12-23T07:03:44.340Z,30.57
2018-12-23T07:06:13.280Z,39.87
2018-12-23T07:08:42.057Z,38.42
2018-12-23T07:11:10.875Z,39.80
2018-12-23T07:13:40.026Z,41.97
2018-12-23T07:16:08.808Z,33.67
2018-12-23T07:18:37.723Z,38.17
2018-12-23T07:21:06.693Z,36.57
2018-12-23T07:23:35.532Z,32.50
2018-12-23T07:26:05.470Z,39.30
2018-12-23T07:28:34.591Z,33.83
2018-12-23T07:31:03.830Z,27.90
2018-12-23T07:33:32.778Z,38.17
2018-12-23T07:36:01.852Z,27.50
2018-12-23T07:38:30.668Z,31.80
2018-12-23T07:40:59.507Z,32.33
2018-12-23T07:43:28.292Z,29.67
2018-12-23T07:45:57.356Z,37.03
2018-12-23T07:48:26.196Z,21.30
2018-12-23T07:50:54.986Z,27.53
2018-12-23T07:53:24.372Z,29.87
2018-12-23T07:55:53.143Z,28.40
2018-12-23T07:58:22.012Z,29.03
2018-12-23T08:00:50.850Z,22.60
2018-12-23T08:03:19.948Z,26.47
2018-12-23T08:05:48.844Z,20.60
2018-12-23T08:08:17.691Z,18.83
2018-12-23T08:10:46.520Z,32.40
2018-12-23T08:13:15.386Z,29.53
2018-12-23T08:15:44.200Z,31.90
2018-12-23T08:18:13.088Z,25.30
2018-12-23T08:20:42.215Z,24.17
2018-12-23T08:23:12.060Z,20.47
2018-12-23T08:25:40.900Z,25.03
2018-12-23T08:28:09.752Z,24.27
2018-12-23T08:30:38.916Z,25.07
2018-12-23T08:33:07.873Z,19.33
2018-12-23T08:35:36.676Z,15.17
2018-12-23T08:38:05.521Z,15.83
2018-12-23T08:40:34.408Z,20.83
2018-12-23T08:43:03.314Z,18.90
2018-12-23T08:45:32.108Z,21.30
2018-12-23T08:48:01.187Z,14.10
2018-12-23T08:50:30.082Z,13.63
2018-12-23T08:52:58.910Z,14.90
2018-12-23T08:55:29.960Z,16.73
2018-12-23T08:57:59.239Z,13.70
2018-12-23T09:00:28.346Z,12.07
2018-12-23T09:02:57.300Z,13.83
2018-12-23T09:05:26.592Z,13.67
2018-12-23T09:07:56.287Z,19.30
2018-12-23T09:10:25.350Z,15.33
2018-12-23T09:12:54.348Z,22.77
2018-12-23T09:15:23.580Z,25.47
2018-12-23T09:17:52.692Z,19.77
2018-12-23T09:20:22.071Z,15.23
2018-12-23T09:22:51.298Z,14.17
2018-12-23T09:25:20.643Z,17.30
2018-12-23T09:27:49.964Z,13.10
2018-12-23T09:30:19.256Z,15.60
2018-12-23T09:32:48.195Z,14.47
2018-12-23T09:35:17.423Z,17.20
2018-12-23T09:37:46.663Z,12.50
2018-12-23T09:40:15.879Z,17.10
2018-12-23T09:42:45.192Z,15.43
2018-12-23T09:45:14.076Z,17.27
2018-12-23T09:47:43.314Z,19.93
2018-12-23T09:50:12.822Z,17.67
2018-12-23T09:52:41.917Z,14.97
2018-12-23T09:55:12.096Z,16.30
2018-12-23T09:57:41.827Z,17.03
2018-12-23T10:00:11.332Z,15.83
2018-12-23T10:02:40.168Z,18.00
2018-12-23T10:05:09.090Z,13.73
2018-12-23T10:07:38.476Z,14.87
2018-12-23T10:10:07.393Z,11.27
2018-12-23T10:12:36.244Z,14.70
2018-12-23T10:15:05.586Z,16.30
2018-12-23T10:17:34.923Z,15.17
2018-12-23T10:20:04.096Z,13.80
2018-12-23T10:22:34.060Z,12.77
2018-12-23T10:25:02.896Z,16.27
2018-12-23T10:27:31.819Z,10.63
2018-12-23T10:30:00.657Z,12.67
2018-12-23T10:32:29.488Z,14.27
2018-12-23T10:34:58.332Z,18.67
2018-12-23T10:37:27.144Z,17.80
2018-12-23T10:39:55.997Z,15.03
2018-12-23T10:42:24.851Z,16.97
2018-12-23T10:44:53.812Z,20.00
2018-12-23T10:47:39.486Z,20.63
2018-12-23T10:50:08.389Z,18.87
2018-12-23T10:52:37.260Z,25.20
2018-12-23T10:55:06.132Z,15.13
2018-12-23T10:57:36.123Z,17.23
2018-12-23T11:00:07.119Z,17.63
2018-12-23T11:02:36.093Z,18.20
2018-12-23T11:05:05.765Z,18.70
2018-12-23T11:07:34.852Z,17.23
2018-12-23T11:10:04.611Z,20.33
2018-12-23T11:12:33.432Z,13.83
2018-12-23T11:15:02.257Z,19.23
2018-12-23T11:17:32.054Z,13.67
2018-12-23T11:20:00.873Z,12.43
2018-12-23T11:22:29.734Z,11.17
2018-12-23T11:24:58.643Z,22.00
2018-12-23T11:27:27.504Z,13.30
2018-12-23T11:29:56.409Z,20.53
2018-12-23T11:32:25.248Z,21.83
2018-12-23T11:34:54.955Z,19.50
2018-12-23T11:37:23.873Z,13.67
2018-12-23T11:39:52.689Z,20.23
2018-12-23T11:42:21.501Z,10.53
2018-12-23T11:44:50.360Z,14.73
2018-12-23T11:47:20.420Z,20.97
2018-12-23T11:49:49.246Z,14.13
2018-12-23T11:52:18.116Z,14.40
2018-12-23T11:54:46.928Z,13.73
2018-12-23T11:57:15.863Z,13.93
2018-12-23T11:59:44.696Z,12.97
2018-12-23T12:02:15.360Z,16.97
2018-12-23T12:04:44.474Z,11.77
2018-12-23T12:07:13.311Z,15.77
2018-12-23T12:09:42.120Z,10.00
2018-12-23T12:12:10.976Z,16.20
2018-12-23T12:14:40.035Z,15.33
2018-12-23T12:17:10.174Z,17.53
2018-12-23T12:19:39.488Z,14.40
2018-12-23T12:22:08.353Z,13.73
2018-12-23T12:24:37.330Z,16.30
2018-12-23T12:27:06.137Z,13.83
2018-12-23T12:29:34.983Z,16.60
2018-12-23T12:32:03.885Z,15.17
2018-12-23T12:34:32.801Z,19.40
2018-12-23T12:37:01.734Z,15.77
2018-12-23T12:39:30.523Z,16.63
2018-12-23T12:41:59.440Z,17.33
2018-12-23T12:44:28.308Z,16.23
2018-12-23T12:46:57.233Z,12.77
2018-12-23T12:49:43.421Z,19.30
2018-12-23T12:52:12.489Z,17.80
2018-12-23T12:54:44.848Z,20.30
2018-12-23T12:57:16.996Z,13.87
2018-12-23T12:59:46.324Z,18.23
2018-12-23T13:02:16.810Z,25.50
2018-12-23T13:04:52.065Z,14.23
2018-12-23T13:07:22.110Z,14.63
2018-12-23T13:09:52.667Z,16.87
2018-12-23T13:12:21.873Z,19.67
2018-12-23T13:14:50.881Z,20.33
2018-12-23T13:17:19.757Z,22.53
2018-12-23T13:19:48.637Z,14.20
2018-12-23T13:22:17.481Z,20.67
2018-12-23T13:24:46.321Z,18.80
2018-12-23T13:27:15.355Z,18.60
2018-12-23T13:29:44.988Z,21.27
2018-12-23T13:32:13.816Z,19.87
2018-12-23T13:34:42.628Z,20.93
2018-12-23T13:37:11.916Z,23.70
2018-12-23T13:39:41.263Z,16.53
2018-12-23T13:42:25.219Z,20.60
2018-12-23T13:48:12.343Z,22.33
2018-12-23T13:50:51.107Z,22.97
2018-12-23T13:53:33.859Z,17.67
2018-12-23T13:56:43.750Z,19.67
2018-12-23T14:01:29.043Z,22.07
2018-12-23T14:06:26.357Z,15.87
2018-12-23T14:09:05.919Z,17.37
2018-12-23T14:11:50.483Z,25.17
2018-12-23T14:14:20.801Z,19.73
2018-12-23T14:16:50.855Z,23.63
2018-12-23T14:19:19.723Z,26.13
2018-12-23T14:21:48.564Z,26.97
2018-12-23T14:24:17.372Z,21.90
2018-12-23T14:26:46.297Z,20.03
2018-12-23T14:29:15.200Z,20.60
2018-12-23T14:31:44.182Z,22.60
2018-12-23T14:34:13.899Z,23.50
2018-12-23T14:36:43.432Z,17.70
2018-12-23T14:39:12.308Z,21.00
2018-12-23T14:41:41.135Z,19.00
2018-12-23T14:44:10.157Z,23.03
2018-12-23T14:46:38.970Z,19.17
2018-12-23T14:49:07.892Z,21.73
2018-12-23T14:51:36.780Z,22.10
2018-12-23T14:54:05.613Z,22.63
2018-12-23T14:56:34.656Z,21.70
2018-12-23T14:59:03.667Z,18.97
2018-12-23T15:01:33.992Z,21.10
2018-12-23T15:04:02.827Z,21.80
2018-12-23T15:06:31.850Z,24.23
2018-12-23T15:09:00.756Z,25.37
2018-12-23T15:11:29.794Z,24.70
2018-12-23T15:13:59.256Z,25.50
2018-12-23T15:16:28.116Z,24.73
2018-12-23T15:18:57.060Z,23.23
2018-12-23T15:21:26.017Z,25.83
2018-12-23T15:23:55.106Z,20.27
2018-12-23T15:26:24.403Z,28.13
2018-12-23T15:28:53.659Z,23.37
2018-12-23T15:31:22.522Z,24.90
2018-12-23T15:33:51.419Z,22.70
2018-12-23T15:36:21.924Z,24.50
2018-12-23T15:38:50.857Z,22.43
2018-12-23T15:41:21.454Z,26.03
2018-12-23T15:43:50.360Z,22.70
2018-12-23T15:46:19.340Z,30.30
2018-12-23T15:48:48.234Z,29.63
2018-12-23T15:51:17.126Z,32.80
2018-12-23T15:53:46.012Z,23.50
2018-12-23T15:56:17.876Z,33.87
2018-12-23T15:58:46.708Z,24.67
2018-12-23T16:01:15.566Z,26.87
2018-12-23T16:03:44.399Z,26.10
2018-12-23T16:06:13.206Z,39.73
2018-12-23T16:08:42.108Z,32.23
2018-12-23T16:11:11.012Z,26.27
2018-12-23T16:13:39.838Z,25.13
2018-12-23T16:16:08.728Z,26.37
2018-12-23T16:18:37.663Z,24.73
2018-12-23T16:21:06.915Z,26.97
2018-12-23T16:23:35.760Z,22.03
2018-12-23T16:26:04.616Z,28.55
2018-12-23T16:28:33.472Z,26.33
2018-12-23T16:31:02.644Z,28.90
2018-12-23T16:33:31.951Z,25.47
2018-12-23T16:36:01.791Z,33.93
2018-12-23T16:38:30.674Z,28.93
2018-12-23T16:40:59.501Z,30.17
2018-12-23T16:43:28.431Z,28.07
2018-12-23T16:45:57.312Z,27.63
2018-12-23T16:48:26.227Z,37.47
2018-12-23T16:50:55.052Z,23.00
2018-12-23T16:53:23.886Z,18.43
2018-12-23T16:55:52.696Z,22.97
2018-12-23T16:58:21.612Z,21.33
2018-12-23T17:00:50.551Z,25.40
2018-12-23T17:03:19.411Z,24.67
2018-12-23T17:05:48.816Z,27.05
2018-12-23T17:08:17.660Z,22.23
2018-12-23T17:10:46.764Z,21.43
2018-12-23T17:13:18.057Z,25.20
2018-12-23T17:15:50.043Z,39.47
2018-12-23T17:18:19.075Z,28.80
2018-12-23T17:20:47.988Z,26.77
2018-12-23T17:23:16.787Z,21.93
2018-12-23T17:26:42.689Z,22.30
2018-12-23T17:29:11.228Z,26.13
2018-12-23T17:31:39.743Z,25.67
2018-12-23T17:34:08.182Z,28.40
2018-12-23T17:36:36.551Z,25.07
2018-12-23T17:39:07.598Z,31.53
2018-12-23T17:41:35.954Z,26.00
2018-12-23T17:44:07.654Z,31.77
2018-12-23T17:46:36.086Z,30.47
2018-12-23T17:49:04.726Z,27.37
2018-12-23T17:51:33.052Z,25.00
2018-12-23T17:54:01.542Z,24.77
2018-12-23T17:56:30.130Z,22.67
2018-12-23T17:58:59.093Z,27.67
2018-12-23T18:01:27.421Z,33.77
2018-12-23T18:04:02.265Z,30.43
2018-12-23T18:06:26.635Z,30.43
2018-12-23T18:08:55.102Z,23.93
2018-12-23T18:11:23.542Z,29.13
2018-12-23T18:13:52.006Z,32.40
2018-12-23T18:16:20.788Z,23.20
2018-12-23T18:18:53.556Z,26.47
2018-12-23T18:21:22.133Z,30.33
2018-12-23T18:23:50.561Z,31.57
2018-12-23T18:26:19.023Z,26.47
2018-12-23T18:28:47.382Z,30.50
2018-12-23T18:31:15.812Z,33.63
2018-12-23T18:33:44.229Z,30.03
2018-12-23T18:36:12.661Z,27.83
2018-12-23T18:38:41.461Z,27.70
2018-12-23T18:41:10.069Z,30.53
2018-12-23T18:43:38.482Z,23.07
2018-12-23T18:46:06.997Z,22.37
2018-12-23T18:48:35.380Z,28.57
2018-12-23T18:51:03.777Z,21.67
2018-12-23T18:53:32.198Z,25.70
2018-12-23T18:56:00.580Z,17.60
2018-12-23T18:58:29.072Z,18.83
2018-12-23T19:00:59.922Z,27.47
2018-12-23T19:03:28.333Z,22.53
2018-12-23T19:05:56.813Z,24.63
2018-12-23T19:08:59.351Z,23.97
2018-12-23T19:11:57.494Z,21.30
2018-12-23T19:15:02.134Z,24.60
2018-12-23T19:18:42.565Z,30.83
2018-12-23T19:21:45.340Z,25.63
2018-12-23T19:24:55.701Z,27.37
2018-12-23T19:28:09.833Z,20.27
2018-12-23T19:31:16.177Z,24.97
2018-12-23T19:34:13.661Z,29.60
2018-12-23T19:37:20.165Z,24.47
2018-12-23T19:40:24.698Z,21.10
2018-12-23T19:43:18.334Z,24.93
2018-12-23T19:46:22.514Z,28.33
2018-12-23T19:49:27.522Z,32.47
2018-12-23T19:52:42.083Z,24.83
2018-12-23T19:55:27.258Z,30.45
2018-12-23T19:58:47.105Z,28.03
2018-12-23T20:01:30.369Z,40.10
2018-12-23T20:04:54.729Z,26.83
2018-12-23T20:08:04.385Z,27.23
2018-12-23T20:11:08.786Z,31.80
2018-12-23T20:14:14.357Z,25.33
2018-12-23T20:17:16.053Z,26.70
2018-12-23T20:20:22.846Z,26.67
2018-12-23T20:23:31.746Z,22.20
2018-12-23T20:26:21.810Z,28.43
2018-12-23T20:29:47.419Z,29.30
2018-12-23T20:32:41.621Z,32.33
2018-12-23T20:35:52.550Z,29.33
2018-12-23T20:39:05.212Z,31.57
2018-12-23T20:42:07.865Z,37.77
2018-12-23T20:45:22.804Z,32.70
2018-12-23T20:48:34.696Z,28.80
2018-12-23T20:51:49.930Z,29.07
2018-12-23T20:55:05.854Z,26.10
2018-12-23T20:58:02.125Z,33.17
2018-12-23T21:01:01.715Z,20.23
2018-12-23T21:03:59.204Z,23.57
2018-12-23T21:07:09.287Z,29.23
2018-12-23T21:10:19.708Z,27.93
2018-12-23T21:13:29.260Z,27.40
2018-12-23T21:16:22.019Z,22.40
2018-12-23T21:19:37.338Z,20.90
2018-12-23T21:22:46.769Z,20.60
2018-12-23T21:25:48.286Z,24.37
2018-12-23T21:28:38.092Z,23.90
2018-12-23T21:31:29.466Z,24.60
2018-12-23T21:34:29.784Z,20.43
2018-12-23T21:37:45.369Z,21.17
2018-12-23T21:40:58.466Z,26.23
2018-12-23T21:44:21.505Z,26.73
2018-12-23T21:47:25.935Z,20.47
2018-12-23T21:50:27.541Z,23.17
2018-12-23T21:54:05.829Z,22.00
2018-12-23T21:57:43.052Z,24.23
2018-12-23T22:00:38.477Z,24.67
2018-12-23T22:03:25.976Z,21.65
2018-12-23T22:06:01.725Z,17.87
2018-12-23T22:09:02.760Z,25.17
2018-12-23T22:11:41.147Z,22.00
2018-12-23T22:14:09.711Z,29.53
2018-12-23T22:16:38.188Z,18.73
2018-12-23T22:19:06.602Z,20.23
2018-12-23T22:21:35.040Z,21.90
2018-12-23T22:24:03.572Z,19.53
2018-12-23T22:26:32.260Z,22.17
2018-12-23T22:29:03.461Z,16.37
2018-12-23T22:31:32.110Z,18.53
2018-12-23T22:34:00.666Z,13.10
2018-12-23T22:36:29.095Z,20.37
2018-12-23T22:38:57.732Z,22.40
2018-12-23T22:41:29.559Z,17.67
2018-12-23T22:43:57.840Z,17.93
2018-12-23T22:46:26.473Z,18.53
2018-12-23T22:48:54.654Z,15.57
2018-12-23T22:51:23.121Z,23.00
2018-12-23T22:53:51.253Z,20.17
2018-12-23T22:56:19.615Z,15.13
2018-12-23T22:58:47.822Z,13.33
2018-12-23T23:01:16.124Z,21.37
2018-12-23T23:03:44.436Z,14.03
2018-12-23T23:06:12.745Z,12.50
2018-12-23T23:08:41.844Z,32.20
2018-12-23T23:11:10.105Z,32.63
2018-12-23T23:13:38.288Z,15.03
2018-12-23T23:16:06.528Z,14.63
2018-12-23T23:18:34.653Z,13.13
2018-12-23T23:21:02.928Z,16.70
2018-12-23T23:23:31.064Z,17.10
2018-12-23T23:25:59.343Z,16.87
2018-12-23T23:28:27.462Z,9.20
2018-12-23T23:30:55.709Z,14.90
2018-12-23T23:33:24.217Z,12.50
2018-12-23T23:35:52.505Z,14.27
2018-12-23T23:38:20.681Z,13.77
2018-12-23T23:40:48.953Z,17.00
2018-12-23T23:43:17.071Z,12.63
2018-12-23T23:45:45.337Z,9.53
2018-12-23T23:48:13.531Z,8.83
2018-12-23T23:50:41.817Z,9.40
2018-12-23T23:53:10.016Z,16.33
2018-12-23T23:55:38.203Z,10.33
2018-12-23T23:58:06.377Z,12.13
